createdAt,value
2023-01-20T00:00:52.682Z,70.80
2023-01-20T00:03:42.414Z,71.02
2023-01-20T00:06:30.638Z,70.65
2023-01-20T00:09:18.035Z,70.79
2023-01-20T00:12:04.102Z,70.64
2023-01-20T00:14:54.051Z,70.85
2023-01-20T00:17:39.801Z,71.00
2023-01-20T00:20:25.749Z,70.73
2023-01-20T00:23:11.411Z,70.52
2023-01-20T00:26:24.154Z,70.74
2023-01-20T00:29:10.174Z,70.62
2023-01-20T00:31:56.250Z,71.19
2023-01-20T00:34:41.803Z,70.78
2023-01-20T00:37:33.007Z,70.69
2023-01-20T00:40:18.622Z,70.70
2023-01-20T00:43:04.153Z,70.97
2023-01-20T00:46:05.652Z,70.60
2023-01-20T00:48:52.214Z,70.70
2023-01-20T00:51:38.317Z,70.54
2023-01-20T00:54:24.156Z,70.51
2023-01-20T00:57:13.135Z,70.45
2023-01-20T00:59:59.122Z,69.88
2023-01-20T01:02:44.815Z,70.57
2023-01-20T01:05:39.516Z,70.52
2023-01-20T01:08:25.705Z,70.62
2023-01-20T01:11:13.654Z,70.38
2023-01-20T01:14:02.659Z,70.63
2023-01-20T01:16:48.335Z,70.23
2023-01-20T01:19:34.134Z,70.53
2023-01-20T01:22:55.602Z,70.06
2023-01-20T01:25:41.754Z,70.31
2023-01-20T01:28:32.556Z,69.84
2023-01-20T01:31:19.125Z,69.76
2023-01-20T01:34:04.755Z,69.91
2023-01-20T01:36:58.906Z,70.11
2023-01-20T01:39:44.542Z,69.89
2023-01-20T01:42:30.303Z,70.13
2023-01-20T01:45:21.820Z,69.98
2023-01-20T01:48:10.398Z,69.58
2023-01-20T01:51:03.512Z,70.60
2023-01-20T01:53:54.018Z,70.40
2023-01-20T01:56:41.870Z,70.28
2023-01-20T01:59:30.760Z,70.24
2023-01-20T02:02:17.210Z,70.46
2023-01-20T02:05:24.459Z,70.51
2023-01-20T02:08:10.575Z,70.15
2023-01-20T02:10:56.278Z,70.44
2023-01-20T02:14:15.108Z,70.04
2023-01-20T02:17:27.765Z,69.97
2023-01-20T02:21:10.891Z,70.42
2023-01-20T02:24:24.540Z,70.19
2023-01-20T02:28:05.261Z,70.10
2023-01-20T02:31:21.731Z,69.86
2023-01-20T02:34:23.926Z,70.08
2023-01-20T02:37:11.522Z,69.59
2023-01-20T02:40:22.773Z,69.87
2023-01-20T02:43:23.539Z,69.63
2023-01-20T02:46:23.324Z,70.15
2023-01-20T02:49:21.678Z,69.79
2023-01-20T02:52:12.430Z,70.01
2023-01-20T02:55:09.390Z,70.47
2023-01-20T02:58:00.888Z,69.99
2023-01-20T03:01:02.376Z,70.10
2023-01-20T03:04:05.455Z,70.18
2023-01-20T03:06:53.593Z,70.11
2023-01-20T03:09:46.153Z,70.26
2023-01-20T03:12:38.316Z,70.46
2023-01-20T03:15:42.931Z,70.26
2023-01-20T03:18:29.795Z,70.09
2023-01-20T03:21:16.744Z,70.09
2023-01-20T03:24:04.053Z,70.52
2023-01-20T03:26:52.204Z,70.00
2023-01-20T03:29:40.877Z,70.33
2023-01-20T03:32:27.166Z,70.15
2023-01-20T03:35:17.692Z,70.62
2023-01-20T03:38:03.372Z,70.03
2023-01-20T03:41:14.945Z,70.60
2023-01-20T03:44:37.453Z,70.18
2023-01-20T03:47:46.789Z,69.89
2023-01-20T03:51:01.449Z,70.13
2023-01-20T03:54:01.629Z,69.83
2023-01-20T03:57:09.039Z,70.04
2023-01-20T03:59:54.950Z,69.36
2023-01-20T04:02:41.442Z,69.80
2023-01-20T04:05:29.339Z,70.51
2023-01-20T04:08:17.122Z,70.54
2023-01-20T04:11:07.464Z,70.31
2023-01-20T04:13:54.068Z,70.02
2023-01-20T04:16:40.258Z,69.85
2023-01-20T04:19:28.166Z,69.92
2023-01-20T04:22:28.014Z,69.62
2023-01-20T04:25:17.834Z,70.07
2023-01-20T04:28:04.518Z,69.78
2023-01-20T04:30:50.912Z,69.79
2023-01-20T04:33:38.420Z,69.50
2023-01-20T04:36:33.291Z,69.63
2023-01-20T04:39:19.518Z,69.51
2023-01-20T04:42:05.396Z,69.85
2023-01-20T04:44:53.143Z,69.95
2023-01-20T04:47:38.981Z,69.83
2023-01-20T04:50:24.657Z,69.38
2023-01-20T04:53:16.888Z,69.70
2023-01-20T04:56:04.113Z,69.47
2023-01-20T04:59:08.428Z,69.93
2023-01-20T05:01:54.583Z,69.61
2023-01-20T05:04:40.688Z,69.48
2023-01-20T05:07:26.515Z,69.74
2023-01-20T05:10:13.282Z,69.90
2023-01-20T05:13:07.689Z,69.32
2023-01-20T05:15:53.267Z,69.72
2023-01-20T05:18:39.407Z,69.90
2023-01-20T05:21:26.638Z,70.20
2023-01-20T05:24:12.590Z,69.67
2023-01-20T05:27:01.073Z,69.65
2023-01-20T05:30:21.797Z,69.84
2023-01-20T05:33:07.477Z,69.89
2023-01-20T05:35:55.984Z,69.92
2023-01-20T05:38:41.816Z,69.81
2023-01-20T05:41:27.525Z,69.80
2023-01-20T05:44:14.399Z,69.78
2023-01-20T05:47:06.675Z,69.52
2023-01-20T05:49:52.364Z,69.78
2023-01-20T05:52:38.133Z,69.78
2023-01-20T05:55:26.155Z,69.25
2023-01-20T05:58:12.151Z,69.63
2023-01-20T06:01:09.244Z,69.46
2023-01-20T06:03:55.044Z,69.88
2023-01-20T06:06:48.173Z,69.38
2023-01-20T06:09:33.841Z,69.04
2023-01-20T06:12:19.705Z,69.56
2023-01-20T06:15:06.274Z,69.56
2023-01-20T06:17:52.664Z,69.43
2023-01-20T06:20:38.947Z,69.74
2023-01-20T06:23:25.758Z,69.73
2023-01-20T06:26:12.993Z,69.46
2023-01-20T06:29:00.725Z,69.63
2023-01-20T06:31:47.354Z,69.44
2023-01-20T06:34:33.089Z,69.34
2023-01-20T06:37:19.682Z,69.58
2023-01-20T06:40:06.036Z,68.93
2023-01-20T06:42:51.712Z,69.43
2023-01-20T06:45:38.466Z,69.22
2023-01-20T06:48:24.473Z,69.15
2023-01-20T06:51:13.416Z,68.83
2023-01-20T06:53:59.907Z,68.87
2023-01-20T06:56:45.881Z,69.17
2023-01-20T06:59:31.799Z,69.30
2023-01-20T07:02:17.745Z,68.58
2023-01-20T07:05:04.681Z,68.92
2023-01-20T07:07:50.791Z,68.58
2023-01-20T07:10:36.977Z,68.26
2023-01-20T07:13:23.197Z,68.77
2023-01-20T07:16:11.468Z,68.72
2023-01-20T07:18:58.645Z,68.87
2023-01-20T07:21:44.341Z,68.05
2023-01-20T07:24:30.010Z,68.57
2023-01-20T07:27:15.734Z,68.82
2023-01-20T07:30:01.386Z,68.35
2023-01-20T07:32:47.008Z,68.14
2023-01-20T07:35:33.019Z,68.36
2023-01-20T07:38:18.769Z,68.01
2023-01-20T07:41:07.523Z,67.86
2023-01-20T07:43:54.418Z,68.11
2023-01-20T07:46:40.393Z,68.49
2023-01-20T07:49:26.237Z,68.98
2023-01-20T07:52:13.231Z,68.43
2023-01-20T07:54:59.141Z,68.62
2023-01-20T07:57:44.855Z,68.43
2023-01-20T08:00:30.630Z,67.94
2023-01-20T08:03:16.459Z,67.44
2023-01-20T08:06:13.642Z,66.79
2023-01-20T08:09:01.662Z,67.66
2023-01-20T08:11:48.262Z,66.51
2023-01-20T08:14:35.665Z,66.35
2023-01-20T08:17:23.526Z,66.39
2023-01-20T08:20:10.625Z,66.55
2023-01-20T08:22:56.349Z,67.04
2023-01-20T08:26:02.117Z,67.37
2023-01-20T08:28:48.215Z,67.50
2023-01-20T08:31:38.627Z,67.56
2023-01-20T08:34:24.571Z,67.93
2023-01-20T08:37:13.210Z,68.04
2023-01-20T08:39:58.875Z,68.63
2023-01-20T08:51:55.506Z,67.90
2023-01-20T08:54:41.277Z,67.53
2023-01-20T08:57:27.265Z,67.58
2023-01-20T09:00:16.463Z,67.77
2023-01-20T09:03:02.251Z,67.53
2023-01-20T09:05:50.390Z,66.71
2023-01-20T09:08:37.305Z,66.93
2023-01-20T09:11:27.675Z,67.03
2023-01-20T09:14:49.649Z,67.31
2023-01-20T09:17:36.208Z,67.40
2023-01-20T09:20:24.800Z,67.02
2023-01-20T09:23:10.659Z,67.49
2023-01-20T09:26:34.192Z,66.99
2023-01-20T09:29:20.794Z,65.58
2023-01-20T09:32:06.507Z,67.28
2023-01-20T09:34:53.168Z,67.32
2023-01-20T09:41:46.888Z,66.79
2023-01-20T09:45:42.597Z,66.66
2023-01-20T09:49:09.085Z,66.23
2023-01-20T09:52:35.462Z,66.58
2023-01-20T09:56:01.478Z,66.74
2023-01-20T10:03:38.211Z,66.78
2023-01-20T10:06:33.973Z,67.06
2023-01-20T10:09:54.568Z,66.81
2023-01-20T10:12:44.516Z,66.05
2023-01-20T10:15:32.369Z,66.59
2023-01-20T10:18:52.760Z,66.62
2023-01-20T10:21:43.916Z,66.71
2023-01-20T10:24:32.702Z,67.02
2023-01-20T10:27:24.662Z,66.87
2023-01-20T10:30:13.102Z,67.11
2023-01-20T10:33:04.163Z,67.09
2023-01-20T10:35:55.236Z,67.07
2023-01-20T10:39:26.901Z,66.32
2023-01-20T10:43:33.017Z,67.15
2023-01-20T10:52:27.496Z,65.72
2023-01-20T10:55:19.367Z,65.91
2023-01-20T10:58:27.969Z,66.35
2023-01-20T11:01:17.129Z,66.69
2023-01-20T11:04:03.016Z,66.65
2023-01-20T11:06:55.424Z,65.73
2023-01-20T11:09:43.624Z,64.98
2023-01-20T11:12:33.204Z,64.98
2023-01-20T11:19:47.237Z,64.83
2023-01-20T11:22:37.196Z,64.15
2023-01-20T11:25:27.506Z,65.15
2023-01-20T11:28:18.276Z,64.54
2023-01-20T11:31:04.643Z,65.25
2023-01-20T11:34:02.381Z,64.52
2023-01-20T11:36:49.810Z,64.97
2023-01-20T11:39:42.374Z,64.63
2023-01-20T11:42:31.747Z,64.72
2023-01-20T11:45:36.341Z,64.66
2023-01-20T11:48:23.003Z,65.42
2023-01-20T11:51:50.178Z,65.45
2023-01-20T11:54:37.241Z,65.26
2023-01-20T11:57:23.233Z,65.22
2023-01-20T12:00:38.181Z,64.76
2023-01-20T12:03:48.307Z,65.10
2023-01-20T12:07:02.825Z,65.74
2023-01-20T12:09:52.934Z,65.41
2023-01-20T12:13:11.499Z,65.29
2023-01-20T12:16:01.327Z,64.63
2023-01-20T12:19:01.565Z,65.08
2023-01-20T12:21:52.658Z,64.25
2023-01-20T12:25:08.705Z,64.79
2023-01-20T12:28:11.058Z,65.22
2023-01-20T12:31:02.304Z,64.49
2023-01-20T12:33:59.047Z,64.98
2023-01-20T12:36:55.099Z,64.13
2023-01-20T12:40:05.031Z,64.42
2023-01-20T12:43:15.081Z,65.20
2023-01-20T12:46:30.373Z,64.87
2023-01-20T12:49:59.955Z,64.15
2023-01-20T12:52:49.110Z,64.60
2023-01-20T12:55:52.700Z,64.60
2023-01-20T12:59:17.254Z,64.50
2023-01-20T13:02:37.679Z,64.39
2023-01-20T13:05:58.259Z,64.47
2023-01-20T13:08:52.376Z,64.29
2023-01-20T13:11:44.120Z,64.08
2023-01-20T13:14:41.333Z,63.81
2023-01-20T13:17:33.358Z,63.76
2023-01-20T13:20:22.760Z,64.12
2023-01-20T13:23:09.845Z,64.65
2023-01-20T13:25:55.773Z,65.32
2023-01-20T13:28:51.477Z,64.50
2023-01-20T13:31:37.371Z,64.13
2023-01-20T13:34:22.915Z,64.63
2023-01-20T13:37:25.145Z,64.91
2023-01-20T13:40:30.625Z,65.55
2023-01-20T13:43:22.970Z,64.98
2023-01-20T13:46:11.707Z,64.58
2023-01-20T13:49:15.336Z,64.76
2023-01-20T13:52:00.853Z,64.33
2023-01-20T13:54:47.357Z,64.22
2023-01-20T13:57:33.836Z,64.37
2023-01-20T14:00:23.498Z,64.11
2023-01-20T14:03:12.818Z,64.21
2023-01-20T14:05:58.477Z,64.55
2023-01-20T14:08:47.895Z,64.16
2023-01-20T14:11:33.436Z,64.51
2023-01-20T14:14:19.869Z,64.97
2023-01-20T14:17:05.669Z,64.77
2023-01-20T14:19:55.183Z,64.24
2023-01-20T14:22:40.854Z,64.48
2023-01-20T14:25:26.924Z,64.51
2023-01-20T14:28:19.625Z,64.73
2023-01-20T14:31:12.041Z,64.98
2023-01-20T14:34:01.436Z,65.17
2023-01-20T14:36:47.476Z,65.81
2023-01-20T14:39:33.481Z,66.09
2023-01-20T14:42:20.046Z,65.84
2023-01-20T14:45:21.553Z,65.78
2023-01-20T14:48:07.469Z,65.79
2023-01-20T14:50:54.088Z,65.33
2023-01-20T14:53:39.668Z,64.88
2023-01-20T14:56:25.327Z,64.45
2023-01-20T14:59:16.710Z,64.80
2023-01-20T15:02:02.799Z,64.84
2023-01-20T15:04:48.414Z,65.36
2023-01-20T15:07:35.815Z,65.19
2023-01-20T15:10:21.254Z,64.78
2023-01-20T15:13:23.895Z,65.72
2023-01-20T15:16:12.914Z,65.54
2023-01-20T15:19:23.713Z,65.81
2023-01-20T15:22:19.853Z,65.83
2023-01-20T15:25:11.813Z,65.87
2023-01-20T15:27:57.747Z,65.92
2023-01-20T15:30:43.336Z,65.53
2023-01-20T15:33:29.139Z,65.50
2023-01-20T15:36:19.339Z,65.63
2023-01-20T15:39:06.232Z,65.59
2023-01-20T15:41:55.184Z,65.52
2023-01-20T15:44:41.182Z,65.71
2023-01-20T15:47:29.374Z,65.74
2023-01-20T15:50:19.686Z,65.64
2023-01-20T15:53:06.506Z,65.84
2023-01-20T15:55:52.466Z,65.80
2023-01-20T15:58:37.975Z,65.37
2023-01-20T16:01:25.290Z,65.61
2023-01-20T16:04:11.195Z,65.48
2023-01-20T16:06:56.595Z,65.72
2023-01-20T16:09:42.734Z,65.86
2023-01-20T16:12:29.741Z,65.90
2023-01-20T16:15:16.001Z,66.04
2023-01-20T16:18:01.925Z,65.88
2023-01-20T16:20:47.839Z,66.11
2023-01-20T16:23:33.702Z,66.29
2023-01-20T16:26:19.695Z,66.42
2023-01-20T16:29:05.395Z,66.43
2023-01-20T16:31:51.102Z,66.20
2023-01-20T16:34:36.689Z,66.30
2023-01-20T16:37:22.138Z,66.60
2023-01-20T16:40:11.563Z,66.09
2023-01-20T16:42:57.359Z,66.57
2023-01-20T16:45:43.298Z,66.36
2023-01-20T16:48:29.096Z,66.29
2023-01-20T16:51:20.818Z,66.47
2023-01-20T16:54:06.376Z,66.34
2023-01-20T16:56:51.817Z,66.20
2023-01-20T16:59:37.579Z,66.43
2023-01-20T17:02:23.041Z,66.28
2023-01-20T17:05:09.105Z,65.98
2023-01-20T17:07:56.925Z,66.11
2023-01-20T17:10:46.512Z,66.63
2023-01-20T17:13:31.927Z,66.33
2023-01-20T17:16:17.848Z,66.25
2023-01-20T17:19:03.550Z,66.15
2023-01-20T17:21:50.277Z,66.26
2023-01-20T17:24:36.311Z,66.15
2023-01-20T17:27:22.710Z,66.24
2023-01-20T17:30:10.127Z,66.14
2023-01-20T17:32:56.466Z,66.13
2023-01-20T17:35:43.098Z,65.84
2023-01-20T17:38:29.420Z,65.78
2023-01-20T17:41:15.048Z,66.24
2023-01-20T17:44:00.760Z,65.98
2023-01-20T17:46:47.752Z,66.22
2023-01-20T17:49:33.822Z,66.46
2023-01-20T17:52:20.311Z,66.89
2023-01-20T17:55:06.002Z,66.45
2023-01-20T17:57:51.781Z,66.81
2023-01-20T18:00:37.524Z,66.78
2023-01-20T18:03:25.303Z,66.33
2023-01-20T18:06:11.495Z,66.22
2023-01-20T18:08:58.396Z,66.11
2023-01-20T18:11:44.090Z,66.24
2023-01-20T18:14:29.684Z,66.02
2023-01-20T18:17:15.222Z,65.96
2023-01-20T18:20:01.154Z,66.41
2023-01-20T18:22:47.170Z,66.26
2023-01-20T18:25:32.835Z,66.21
2023-01-20T18:28:18.188Z,66.05
2023-01-20T18:31:08.855Z,66.12
2023-01-20T18:33:55.669Z,65.93
2023-01-20T18:36:41.925Z,66.09
2023-01-20T18:39:28.249Z,66.04
2023-01-20T18:42:14.042Z,66.40
2023-01-20T18:44:59.594Z,66.02
2023-01-20T18:47:45.351Z,66.60
2023-01-20T18:50:30.752Z,66.07
2023-01-20T18:53:16.453Z,66.14
2023-01-20T18:56:02.015Z,65.82
2023-01-20T18:58:47.429Z,65.88
2023-01-20T19:01:34.341Z,66.18
2023-01-20T19:04:19.775Z,66.22
2023-01-20T19:07:06.012Z,66.35
2023-01-20T19:09:52.031Z,66.11
2023-01-20T19:12:37.770Z,66.21
2023-01-20T19:15:23.201Z,66.64
2023-01-20T19:18:08.881Z,66.11
2023-01-20T19:20:54.477Z,65.98
2023-01-20T19:23:40.292Z,65.92
2023-01-20T19:26:26.219Z,66.04
2023-01-20T19:29:15.928Z,66.05
2023-01-20T19:32:01.322Z,65.64
2023-01-20T19:34:47.248Z,65.83
2023-01-20T19:37:32.953Z,65.95
2023-01-20T19:40:18.840Z,66.01
2023-01-20T19:43:04.595Z,66.08
2023-01-20T19:45:50.646Z,66.03
2023-01-20T19:48:37.573Z,65.98
2023-01-20T19:51:23.435Z,66.49
2023-01-20T19:54:10.312Z,66.38
2023-01-20T19:56:56.657Z,66.62
2023-01-20T19:59:42.351Z,66.32
2023-01-20T20:02:27.925Z,66.03
2023-01-20T20:05:13.646Z,66.14
2023-01-20T20:07:59.356Z,65.95
2023-01-20T20:10:45.072Z,65.87
2023-01-20T20:13:30.817Z,66.42
2023-01-20T20:16:18.010Z,66.39
2023-01-20T20:19:03.833Z,66.27
2023-01-20T20:21:57.679Z,65.71
2023-01-20T20:24:43.355Z,65.96
2023-01-20T20:27:29.265Z,65.51
2023-01-20T20:30:15.169Z,65.48
2023-01-20T20:33:01.834Z,65.16
2023-01-20T20:35:47.581Z,65.27
2023-01-20T20:38:34.696Z,65.27
2023-01-20T20:41:20.647Z,65.35
2023-01-20T20:44:06.397Z,65.18
2023-01-20T20:46:52.098Z,65.12
2023-01-20T20:49:37.655Z,65.18
2023-01-20T20:52:23.473Z,65.10
2023-01-20T20:55:11.489Z,65.29
2023-01-20T20:57:58.212Z,65.37
2023-01-20T21:00:45.136Z,65.65
2023-01-20T21:03:31.363Z,65.56
2023-01-20T21:06:16.892Z,65.73
2023-01-20T21:09:02.800Z,65.74
2023-01-20T21:11:48.572Z,65.82
2023-01-20T21:14:34.179Z,65.71
2023-01-20T21:17:19.715Z,65.91
2023-01-20T21:20:08.424Z,65.92
2023-01-20T21:22:53.958Z,65.80
2023-01-20T21:25:40.510Z,65.86
2023-01-20T21:28:26.756Z,65.69
2023-01-20T21:31:13.511Z,65.57
2023-01-20T21:34:00.417Z,65.98
2023-01-20T21:36:46.500Z,65.92
2023-01-20T21:39:33.199Z,65.47
2023-01-20T21:42:18.762Z,65.38
2023-01-20T21:45:04.550Z,65.66
2023-01-20T21:47:50.282Z,65.69
2023-01-20T21:51:11.491Z,65.85
2023-01-20T21:53:57.027Z,66.06
2023-01-20T21:56:42.885Z,66.15
2023-01-20T21:59:28.723Z,65.95
2023-01-20T22:02:14.552Z,65.76
2023-01-20T22:05:07.908Z,65.77
2023-01-20T22:07:53.151Z,65.66
2023-01-20T22:10:38.791Z,65.67
2023-01-20T22:13:24.736Z,65.54
2023-01-20T22:16:11.529Z,65.67
2023-01-20T22:18:56.921Z,65.62
2023-01-20T22:21:44.868Z,65.40
2023-01-20T22:24:30.659Z,65.71
2023-01-20T22:27:18.134Z,66.01
2023-01-20T22:30:03.701Z,66.04
2023-01-20T22:32:49.214Z,66.22
2023-01-20T22:35:34.727Z,65.42
2023-01-20T22:38:20.331Z,65.15
2023-01-20T22:41:06.958Z,65.23
2023-01-20T22:43:52.994Z,65.02
2023-01-20T22:46:38.738Z,65.58
2023-01-20T22:49:24.519Z,66.03
2023-01-20T22:52:10.565Z,65.67
2023-01-20T22:54:56.258Z,65.49
2023-01-20T22:57:41.883Z,65.57
2023-01-20T23:00:27.523Z,65.64
2023-01-20T23:03:13.189Z,65.67
2023-01-20T23:05:59.301Z,65.51
2023-01-20T23:08:44.987Z,65.68
2023-01-20T23:11:31.105Z,65.79
2023-01-20T23:14:16.857Z,65.75
2023-01-20T23:17:02.657Z,65.67
2023-01-20T23:19:48.267Z,65.55
2023-01-20T23:22:33.963Z,65.68
2023-01-20T23:25:20.526Z,65.47
2023-01-20T23:28:06.238Z,65.79
2023-01-20T23:30:51.839Z,66.02
2023-01-20T23:33:37.218Z,65.76
2023-01-20T23:36:23.832Z,65.75
2023-01-20T23:39:09.510Z,65.81
2023-01-20T23:41:56.032Z,66.04
2023-01-20T23:44:41.405Z,65.87
2023-01-20T23:47:26.929Z,66.15
2023-01-20T23:50:12.780Z,66.08
2023-01-20T23:52:58.440Z,65.95
2023-01-20T23:55:44.193Z,66.06
2023-01-20T23:58:29.672Z,65.81
